sensor_id;sensor_type;location;lat;lon;timestamp;pressure;altitude;pressure_sealevel;temperature;humidity
78990;BME280;68390;52.130;21.218;2023-04-15T00:02:19;99794.31;;;9.97;69.02
78990;BME280;68390;52.130;21.218;2023-04-15T00:04:45;99801.69;;;9.96;69.07
78990;BME280;68390;52.130;21.218;2023-04-15T00:07:10;99794.50;;;9.95;68.56
78990;BME280;68390;52.130;21.218;2023-04-15T00:09:36;99795.34;;;9.96;68.74
78990;BME280;68390;52.130;21.218;2023-04-15T00:12:02;99798.94;;;9.96;69.43
78990;BME280;68390;52.130;21.218;2023-04-15T00:14:28;99798.28;;;9.94;69.57
78990;BME280;68390;52.130;21.218;2023-04-15T00:16:53;99799.66;;;9.90;71.28
78990;BME280;68390;52.130;21.218;2023-04-15T00:19:20;99794.91;;;9.84;72.91
78990;BME280;68390;52.130;21.218;2023-04-15T00:21:46;99791.84;;;9.79;73.16
78990;BME280;68390;52.130;21.218;2023-04-15T00:24:11;99790.84;;;9.72;74.19
78990;BME280;68390;52.130;21.218;2023-04-15T00:26:37;99793.09;;;9.68;74.20
78990;BME280;68390;52.130;21.218;2023-04-15T00:29:03;99783.53;;;9.64;74.41
78990;BME280;68390;52.130;21.218;2023-04-15T00:31:29;99787.47;;;9.62;73.44
78990;BME280;68390;52.130;21.218;2023-04-15T00:33:55;99784.06;;;9.60;73.58
78990;BME280;68390;52.130;21.218;2023-04-15T00:36:21;99784.25;;;9.58;73.38
78990;BME280;68390;52.130;21.218;2023-04-15T00:38:47;99788.88;;;9.57;73.20
78990;BME280;68390;52.130;21.218;2023-04-15T00:41:12;99789.72;;;9.58;73.67
78990;BME280;68390;52.130;21.218;2023-04-15T00:43:38;99790.91;;;9.55;73.17
78990;BME280;68390;52.130;21.218;2023-04-15T00:46:04;99788.88;;;9.57;73.64
78990;BME280;68390;52.130;21.218;2023-04-15T00:48:31;99785.66;;;9.54;73.80
78990;BME280;68390;52.130;21.218;2023-04-15T00:50:56;99785.81;;;9.52;74.88
78990;BME280;68390;52.130;21.218;2023-04-15T00:53:22;99780.69;;;9.49;75.31
78990;BME280;68390;52.130;21.218;2023-04-15T00:55:48;99783.13;;;9.44;76.21
78990;BME280;68390;52.130;21.218;2023-04-15T00:58:14;99782.63;;;9.41;76.71
78990;BME280;68390;52.130;21.218;2023-04-15T01:00:41;99785.53;;;9.39;76.11
78990;BME280;68390;52.130;21.218;2023-04-15T01:03:07;99787.25;;;9.40;76.81
78990;BME280;68390;52.130;21.218;2023-04-15T01:05:33;99782.66;;;9.33;76.64
78990;BME280;68390;52.130;21.218;2023-04-15T01:07:59;99780.78;;;9.33;76.97
78990;BME280;68390;52.130;21.218;2023-04-15T01:10:24;99777.34;;;9.31;76.98
78990;BME280;68390;52.130;21.218;2023-04-15T01:12:50;99776.84;;;9.28;77.86
78990;BME280;68390;52.130;21.218;2023-04-15T01:15:15;99780.25;;;9.30;77.79
78990;BME280;68390;52.130;21.218;2023-04-15T01:17:41;99777.69;;;9.28;77.11
78990;BME280;68390;52.130;21.218;2023-04-15T01:20:07;99790.03;;;9.24;76.95
78990;BME280;68390;52.130;21.218;2023-04-15T01:22:36;99775.50;;;9.24;76.24
78990;BME280;68390;52.130;21.218;2023-04-15T01:25:09;99773.78;;;9.23;76.27
78990;BME280;68390;52.130;21.218;2023-04-15T01:27:38;99781.00;;;9.24;76.71
78990;BME280;68390;52.130;21.218;2023-04-15T01:30:04;99780.13;;;9.23;76.42
78990;BME280;68390;52.130;21.218;2023-04-15T01:32:30;99777.41;;;9.23;76.90
78990;BME280;68390;52.130;21.218;2023-04-15T01:34:56;99773.59;;;9.24;77.13
78990;BME280;68390;52.130;21.218;2023-04-15T01:37:21;99773.59;;;9.24;76.76
78990;BME280;68390;52.130;21.218;2023-04-15T01:40:07;99774.66;;;9.23;76.65
78990;BME280;68390;52.130;21.218;2023-04-15T01:42:35;99781.00;;;9.24;77.23
78990;BME280;68390;52.130;21.218;2023-04-15T01:45:00;99778.03;;;9.25;77.63
78990;BME280;68390;52.130;21.218;2023-04-15T01:47:26;99777.19;;;9.25;77.19
78990;BME280;68390;52.130;21.218;2023-04-15T01:49:52;99782.50;;;9.26;77.31
78990;BME280;68390;52.130;21.218;2023-04-15T01:52:17;99774.81;;;9.22;77.80
78990;BME280;68390;52.130;21.218;2023-04-15T01:54:43;99779.78;;;9.18;77.68
78990;BME280;68390;52.130;21.218;2023-04-15T01:57:08;99779.09;;;9.16;78.84
78990;BME280;68390;52.130;21.218;2023-04-15T01:59:34;99781.16;;;9.14;78.97
78990;BME280;68390;52.130;21.218;2023-04-15T02:02:00;99778.44;;;9.14;79.40
78990;BME280;68390;52.130;21.218;2023-04-15T02:04:25;99777.41;;;9.15;79.22
78990;BME280;68390;52.130;21.218;2023-04-15T02:06:52;99771.91;;;9.15;79.82
78990;BME280;68390;52.130;21.218;2023-04-15T02:09:17;99773.16;;;9.12;79.35
78990;BME280;68390;52.130;21.218;2023-04-15T02:11:43;99765.09;;;9.11;79.67
78990;BME280;68390;52.130;21.218;2023-04-15T02:14:08;99765.28;;;9.09;79.15
78990;BME280;68390;52.130;21.218;2023-04-15T02:16:34;99766.31;;;9.08;79.57
78990;BME280;68390;52.130;21.218;2023-04-15T02:19:00;99768.34;;;9.06;78.52
78990;BME280;68390;52.130;21.218;2023-04-15T02:21:26;99771.94;;;9.07;79.21
78990;BME280;68390;52.130;21.218;2023-04-15T02:23:51;99779.16;;;9.08;79.39
78990;BME280;68390;52.130;21.218;2023-04-15T02:26:19;99771.28;;;9.05;79.08
78990;BME280;68390;52.130;21.218;2023-04-15T02:28:45;99778.47;;;9.06;79.93
78990;BME280;68390;52.130;21.218;2023-04-15T02:31:11;99771.28;;;9.05;79.94
78990;BME280;68390;52.130;21.218;2023-04-15T02:33:36;99770.78;;;9.01;80.31
78990;BME280;68390;52.130;21.218;2023-04-15T02:36:02;99773.69;;;9.00;81.17
78990;BME280;68390;52.130;21.218;2023-04-15T02:38:27;99770.97;;;9.00;80.90
78990;BME280;68390;52.130;21.218;2023-04-15T02:40:53;99768.38;;;8.98;80.97
78990;BME280;68390;52.130;21.218;2023-04-15T02:43:18;99764.78;;;8.98;80.68
78990;BME280;68390;52.130;21.218;2023-04-15T02:45:45;99762.22;;;8.96;81.03
78990;BME280;68390;52.130;21.218;2023-04-15T02:48:11;99766.00;;;8.95;81.04
78990;BME280;68390;52.130;21.218;2023-04-15T02:50:36;99774.38;;;8.94;81.08
78990;BME280;68390;52.130;21.218;2023-04-15T02:53:03;99762.56;;;8.93;81.63
78990;BME280;68390;52.130;21.218;2023-04-15T02:55:30;99771.00;;;8.92;80.85
78990;BME280;68390;52.130;21.218;2023-04-15T02:57:55;99773.03;;;8.90;81.11
78990;BME280;68390;52.130;21.218;2023-04-15T03:00:22;99765.69;;;8.90;81.16
78990;BME280;68390;52.130;21.218;2023-04-15T03:02:49;99768.41;;;8.90;81.43
78990;BME280;68390;52.130;21.218;2023-04-15T03:05:20;99763.81;;;8.91;80.88
78990;BME280;68390;52.130;21.218;2023-04-15T03:07:46;99771.00;;;8.92;81.35
78990;BME280;68390;52.130;21.218;2023-04-15T03:10:11;99769.28;;;8.91;81.42
78990;BME280;68390;52.130;21.218;2023-04-15T03:12:37;99770.13;;;8.91;80.79
78990;BME280;68390;52.130;21.218;2023-04-15T03:15:02;99766.53;;;8.91;81.07
78990;BME280;68390;52.130;21.218;2023-04-15T03:17:28;99768.03;;;8.93;80.39
78990;BME280;68390;52.130;21.218;2023-04-15T03:19:53;99769.09;;;8.92;80.68
78990;BME280;68390;52.130;21.218;2023-04-15T03:22:19;99767.22;;;8.93;80.82
78990;BME280;68390;52.130;21.218;2023-04-15T03:24:44;99771.63;;;8.94;80.66
78990;BME280;68390;52.130;21.218;2023-04-15T03:27:09;99766.84;;;8.96;80.71
78990;BME280;68390;52.130;21.218;2023-04-15T03:29:35;99772.31;;;8.96;80.61
78990;BME280;68390;52.130;21.218;2023-04-15T03:32:00;99765.13;;;8.95;80.76
78990;BME280;68390;52.130;21.218;2023-04-15T03:34:26;99770.63;;;8.95;81.38
78990;BME280;68390;52.130;21.218;2023-04-15T03:36:51;99766.84;;;8.96;81.61
78990;BME280;68390;52.130;21.218;2023-04-15T03:39:16;99766.84;;;8.96;80.98
78990;BME280;68390;52.130;21.218;2023-04-15T03:41:42;99766.00;;;8.95;81.39
78990;BME280;68390;52.130;21.218;2023-04-15T03:44:07;99773.34;;;8.95;81.59
78990;BME280;68390;52.130;21.218;2023-04-15T03:46:33;99766.84;;;8.96;81.52
78990;BME280;68390;52.130;21.218;2023-04-15T03:48:58;99776.94;;;8.95;81.95
78990;BME280;68390;52.130;21.218;2023-04-15T03:51:23;99773.53;;;8.93;82.14
78990;BME280;68390;52.130;21.218;2023-04-15T03:53:49;99781.94;;;8.92;82.90
78990;BME280;68390;52.130;21.218;2023-04-15T03:56:14;99788.63;;;8.89;82.53
78990;BME280;68390;52.130;21.218;2023-04-15T03:58:40;99776.81;;;8.89;82.98
78990;BME280;68390;52.130;21.218;2023-04-15T04:01:05;99778.84;;;8.87;83.25
78990;BME280;68390;52.130;21.218;2023-04-15T04:03:30;99778.00;;;8.86;83.20
78990;BME280;68390;52.130;21.218;2023-04-15T04:05:56;99786.38;;;8.84;83.86
78990;BME280;68390;52.130;21.218;2023-04-15T04:08:22;99782.97;;;8.82;83.93
78990;BME280;68390;52.130;21.218;2023-04-15T04:10:47;99785.91;;;8.81;83.91
78990;BME280;68390;52.130;21.218;2023-04-15T04:13:12;99790.53;;;8.80;84.24
78990;BME280;68390;52.130;21.218;2023-04-15T04:15:38;99785.03;;;8.80;83.65
78990;BME280;68390;52.130;21.218;2023-04-15T04:18:03;99788.13;;;8.77;83.74
78990;BME280;68390;52.130;21.218;2023-04-15T04:20:29;99779.91;;;8.77;84.19
78990;BME280;68390;52.130;21.218;2023-04-15T04:22:56;99785.38;;;8.77;83.55
78990;BME280;68390;52.130;21.218;2023-04-15T04:25:21;99778.19;;;8.76;84.32
78990;BME280;68390;52.130;21.218;2023-04-15T04:27:47;99789.16;;;8.76;84.65
78990;BME280;68390;52.130;21.218;2023-04-15T04:30:12;99776.16;;;8.78;83.93
78990;BME280;68390;52.130;21.218;2023-04-15T04:32:37;99789.16;;;8.76;84.10
78990;BME280;68390;52.130;21.218;2023-04-15T04:35:03;99789.16;;;8.76;84.27
78990;BME280;68390;52.130;21.218;2023-04-15T04:37:29;99787.44;;;8.75;83.94
78990;BME280;68390;52.130;21.218;2023-04-15T04:39:54;99790.00;;;8.77;84.87
78990;BME280;68390;52.130;21.218;2023-04-15T04:42:20;99784.69;;;8.75;84.46
78990;BME280;68390;52.130;21.218;2023-04-15T04:44:46;99785.56;;;8.76;84.38
78990;BME280;68390;52.130;21.218;2023-04-15T04:47:11;99787.09;;;8.78;84.66
78990;BME280;68390;52.130;21.218;2023-04-15T04:49:37;99785.38;;;8.77;84.79
78990;BME280;68390;52.130;21.218;2023-04-15T04:52:02;99781.63;;;8.78;85.07
78990;BME280;68390;52.130;21.218;2023-04-15T04:54:28;99784.34;;;8.78;84.64
78990;BME280;68390;52.130;21.218;2023-04-15T04:56:54;99791.72;;;8.78;84.90
78990;BME280;68390;52.130;21.218;2023-04-15T04:59:22;99781.63;;;8.78;84.60
78990;BME280;68390;52.130;21.218;2023-04-15T05:01:47;99788.81;;;8.79;84.72
78990;BME280;68390;52.130;21.218;2023-04-15T05:04:13;99788.97;;;8.78;85.08
78990;BME280;68390;52.130;21.218;2023-04-15T05:06:38;99791.53;;;8.79;84.70
78990;BME280;68390;52.130;21.218;2023-04-15T05:09:04;99793.44;;;8.79;84.60
78990;BME280;68390;52.130;21.218;2023-04-15T05:11:29;99787.78;;;8.80;84.92
78990;BME280;68390;52.130;21.218;2023-04-15T05:13:55;99790.53;;;8.80;85.30
78990;BME280;68390;52.130;21.218;2023-04-15T05:16:20;99788.81;;;8.79;85.37
78990;BME280;68390;52.130;21.218;2023-04-15T05:18:46;99796.00;;;8.80;85.16
78990;BME280;68390;52.130;21.218;2023-04-15T05:21:11;99794.28;;;8.79;85.05
78990;BME280;68390;52.130;21.218;2023-04-15T05:23:37;99788.63;;;8.81;85.50
78990;BME280;68390;52.130;21.218;2023-04-15T05:26:02;99781.28;;;8.81;85.29
78990;BME280;68390;52.130;21.218;2023-04-15T05:28:28;99788.44;;;8.82;85.58
78990;BME280;68390;52.130;21.218;2023-04-15T05:30:53;99793.75;;;8.84;85.68
78990;BME280;68390;52.130;21.218;2023-04-15T05:33:19;99790.16;;;8.83;84.83
78990;BME280;68390;52.130;21.218;2023-04-15T05:35:44;99796.47;;;8.84;85.49
78990;BME280;68390;52.130;21.218;2023-04-15T05:38:10;99799.38;;;8.82;85.11
78990;BME280;68390;52.130;21.218;2023-04-15T05:40:35;99798.72;;;8.80;85.10
78990;BME280;68390;52.130;21.218;2023-04-15T05:43:01;99791.53;;;8.79;85.34
78990;BME280;68390;52.130;21.218;2023-04-15T05:45:26;99799.59;;;8.81;85.19
78990;BME280;68390;52.130;21.218;2023-04-15T05:47:52;99797.88;;;8.80;84.90
78990;BME280;68390;52.130;21.218;2023-04-15T05:50:18;99801.63;;;8.79;85.50
78990;BME280;68390;52.130;21.218;2023-04-15T05:52:44;99797.72;;;8.81;85.56
78990;BME280;68390;52.130;21.218;2023-04-15T05:55:10;99800.25;;;8.83;85.26
78990;BME280;68390;52.130;21.218;2023-04-15T05:57:36;99794.97;;;8.81;85.37
78990;BME280;68390;52.130;21.218;2023-04-15T06:00:03;99799.38;;;8.82;85.48
78990;BME280;68390;52.130;21.218;2023-04-15T06:02:29;99794.59;;;8.84;85.71
78990;BME280;68390;52.130;21.218;2023-04-15T06:04:56;99800.75;;;8.87;85.51
78990;BME280;68390;52.130;21.218;2023-04-15T06:07:22;99801.44;;;8.89;85.99
78990;BME280;68390;52.130;21.218;2023-04-15T06:09:48;99808.63;;;8.90;85.58
78990;BME280;68390;52.130;21.218;2023-04-15T06:12:14;99811.38;;;8.90;85.50
78990;BME280;68390;52.130;21.218;2023-04-15T06:14:40;99810.34;;;8.91;85.53
78990;BME280;68390;52.130;21.218;2023-04-15T06:17:05;99811.38;;;8.90;85.43
78990;BME280;68390;52.130;21.218;2023-04-15T06:19:31;99816.50;;;8.93;85.60
78990;BME280;68390;52.130;21.218;2023-04-15T06:21:57;99820.94;;;8.94;85.39
78990;BME280;68390;52.130;21.218;2023-04-15T06:24:23;99817.72;;;8.90;85.06
78990;BME280;68390;52.130;21.218;2023-04-15T06:26:48;99814.59;;;8.93;85.28
78990;BME280;68390;52.130;21.218;2023-04-15T06:29:13;99821.13;;;8.92;85.46
78990;BME280;68390;52.130;21.218;2023-04-15T06:31:39;99821.47;;;8.89;85.47
78990;BME280;68390;52.130;21.218;2023-04-15T06:34:05;99817.88;;;8.89;85.71
78990;BME280;68390;52.130;21.218;2023-04-15T06:36:30;99817.72;;;8.90;85.30
78990;BME280;68390;52.130;21.218;2023-04-15T06:38:56;99821.31;;;8.91;85.75
78990;BME280;68390;52.130;21.218;2023-04-15T06:41:22;99821.31;;;8.91;85.51
78990;BME280;68390;52.130;21.218;2023-04-15T06:43:47;99818.56;;;8.91;85.37
78990;BME280;68390;52.130;21.218;2023-04-15T06:46:13;99825.75;;;8.92;85.55
78990;BME280;68390;52.130;21.218;2023-04-15T06:48:38;99822.00;;;8.93;85.21
78990;BME280;68390;52.130;21.218;2023-04-15T06:51:04;99831.22;;;8.92;85.63
78990;BME280;68390;52.130;21.218;2023-04-15T06:53:29;99837.34;;;8.94;85.80
78990;BME280;68390;52.130;21.218;2023-04-15T06:55:55;99831.22;;;8.92;85.61
78990;BME280;68390;52.130;21.218;2023-04-15T06:58:20;99829.34;;;8.92;85.76
78990;BME280;68390;52.130;21.218;2023-04-15T07:00:46;99830.19;;;8.93;85.97
78990;BME280;68390;52.130;21.218;2023-04-15T07:03:12;99832.56;;;8.96;86.46
78990;BME280;68390;52.130;21.218;2023-04-15T07:05:38;99845.22;;;8.97;85.60
78990;BME280;68390;52.130;21.218;2023-04-15T07:08:04;99843.19;;;8.99;86.09
78990;BME280;68390;52.130;21.218;2023-04-15T07:10:29;99845.06;;;8.98;86.13
78990;BME280;68390;52.130;21.218;2023-04-15T07:12:55;99841.47;;;8.98;85.54
78990;BME280;68390;52.130;21.218;2023-04-15T07:15:21;99844.91;;;9.00;85.72
78990;BME280;68390;52.130;21.218;2023-04-15T07:17:47;99842.00;;;9.01;85.77
78990;BME280;68390;52.130;21.218;2023-04-15T07:20:13;99847.47;;;9.01;85.51
78990;BME280;68390;52.130;21.218;2023-04-15T07:22:39;99848.31;;;9.02;85.39
78990;BME280;68390;52.130;21.218;2023-04-15T07:25:04;99850.84;;;9.03;85.66
78990;BME280;68390;52.130;21.218;2023-04-15T07:27:30;99850.03;;;9.03;85.66
78990;BME280;68390;52.130;21.218;2023-04-15T07:29:56;99853.81;;;9.02;85.62
78990;BME280;68390;52.130;21.218;2023-04-15T07:32:21;99848.50;;;9.00;85.26
78990;BME280;68390;52.130;21.218;2023-04-15T07:34:46;99848.31;;;9.02;85.39
78990;BME280;68390;52.130;21.218;2023-04-15T07:37:12;99848.13;;;9.03;85.33
78990;BME280;68390;52.130;21.218;2023-04-15T07:39:37;99846.25;;;9.04;85.74
78990;BME280;68390;52.130;21.218;2023-04-15T07:42:03;99845.22;;;9.05;85.46
78990;BME280;68390;52.130;21.218;2023-04-15T07:44:29;99841.28;;;9.07;85.15
78990;BME280;68390;52.130;21.218;2023-04-15T07:46:55;99842.13;;;9.08;86.14
78990;BME280;68390;52.130;21.218;2023-04-15T07:49:20;99848.13;;;9.11;85.41
78990;BME280;68390;52.130;21.218;2023-04-15T07:51:46;99848.13;;;9.11;85.40
78990;BME280;68390;52.130;21.218;2023-04-15T07:54:12;99842.47;;;9.13;85.59
78990;BME280;68390;52.130;21.218;2023-04-15T07:56:38;99839.75;;;9.13;85.99
78990;BME280;68390;52.130;21.218;2023-04-15T07:59:03;99841.44;;;9.14;85.18
78990;BME280;68390;52.130;21.218;2023-04-15T08:01:30;99833.88;;;9.16;85.85
78990;BME280;68390;52.130;21.218;2023-04-15T08:03:55;99849.31;;;9.17;85.55
78990;BME280;68390;52.130;21.218;2023-04-15T08:06:21;99846.41;;;9.18;85.49
78990;BME280;68390;52.130;21.218;2023-04-15T08:08:47;99848.63;;;9.23;85.35
78990;BME280;68390;52.130;21.218;2023-04-15T08:11:13;99847.22;;;9.27;85.38
78990;BME280;68390;52.130;21.218;2023-04-15T08:13:38;99845.69;;;9.33;85.67
78990;BME280;68390;52.130;21.218;2023-04-15T08:16:17;99845.81;;;9.39;85.64
78990;BME280;68390;52.130;21.218;2023-04-15T08:18:43;99848.91;;;9.44;85.20
78990;BME280;68390;52.130;21.218;2023-04-15T08:21:10;99846.81;;;9.46;85.58
78990;BME280;68390;52.130;21.218;2023-04-15T08:23:35;99835.50;;;9.49;84.82
78990;BME280;68390;52.130;21.218;2023-04-15T08:26:01;99847.47;;;9.56;85.37
78990;BME280;68390;52.130;21.218;2023-04-15T08:28:26;99851.72;;;9.59;85.29
78990;BME280;68390;52.130;21.218;2023-04-15T08:30:52;99849.84;;;9.60;84.05
78990;BME280;68390;52.130;21.218;2023-04-15T08:33:17;99843.50;;;9.59;84.87
78990;BME280;68390;52.130;21.218;2023-04-15T08:35:43;99846.38;;;9.66;84.84
78990;BME280;68390;52.130;21.218;2023-04-15T08:38:08;99851.53;;;9.69;84.77
78990;BME280;68390;52.130;21.218;2023-04-15T08:40:41;99855.81;;;9.71;83.89
78990;BME280;68390;52.130;21.218;2023-04-15T08:43:15;99860.25;;;9.72;83.76
78990;BME280;68390;52.130;21.218;2023-04-15T08:45:43;99860.94;;;9.74;84.34
78990;BME280;68390;52.130;21.218;2023-04-15T08:48:13;99857.34;;;9.74;84.28
78990;BME280;68390;52.130;21.218;2023-04-15T08:50:41;99859.69;;;9.77;84.32
78990;BME280;68390;52.130;21.218;2023-04-15T08:53:08;99856.78;;;9.78;84.00
78990;BME280;68390;52.130;21.218;2023-04-15T08:55:35;99853.88;;;9.80;84.03
78990;BME280;68390;52.130;21.218;2023-04-15T08:58:04;99853.34;;;9.84;84.43
78990;BME280;68390;52.130;21.218;2023-04-15T09:00:31;99862.38;;;9.93;84.42
78990;BME280;68390;52.130;21.218;2023-04-15T09:02:58;99866.97;;;10.01;84.11
78990;BME280;68390;52.130;21.218;2023-04-15T09:05:23;99863.69;;;10.05;84.61
78990;BME280;68390;52.130;21.218;2023-04-15T09:07:51;99856.63;;;10.11;84.10
78990;BME280;68390;52.130;21.218;2023-04-15T09:10:17;99856.09;;;10.07;83.10
78990;BME280;68390;52.130;21.218;2023-04-15T09:12:42;99857.34;;;10.05;83.34
78990;BME280;68390;52.130;21.218;2023-04-15T09:15:10;99868.78;;;10.08;83.58
78990;BME280;68390;52.130;21.218;2023-04-15T09:17:41;99861.25;;;10.10;83.42
78990;BME280;68390;52.130;21.218;2023-04-15T09:22:34;99860.22;;;10.11;83.35
78990;BME280;68390;52.130;21.218;2023-04-15T09:25:01;99862.44;;;10.16;83.85
78990;BME280;68390;52.130;21.218;2023-04-15T09:27:26;99860.19;;;10.19;83.41
78990;BME280;68390;52.130;21.218;2023-04-15T09:29:52;99863.97;;;10.18;82.77
78990;BME280;68390;52.130;21.218;2023-04-15T09:32:18;99868.41;;;10.19;83.47
78990;BME280;68390;52.130;21.218;2023-04-15T09:34:45;99863.94;;;10.26;84.13
78990;BME280;68390;52.130;21.218;2023-04-15T09:37:11;99869.03;;;10.29;82.87
78990;BME280;68390;52.130;21.218;2023-04-15T09:39:49;99862.53;;;10.30;83.10
78990;BME280;68390;52.130;21.218;2023-04-15T09:42:15;99866.44;;;10.36;83.75
78990;BME280;68390;52.130;21.218;2023-04-15T09:44:42;99870.69;;;10.39;83.62
78990;BME280;68390;52.130;21.218;2023-04-15T09:47:07;99868.16;;;10.37;82.37
78990;BME280;68390;52.130;21.218;2023-04-15T09:49:33;99879.59;;;10.41;82.46
78990;BME280;68390;52.130;21.218;2023-04-15T09:52:00;99874.97;;;10.41;82.60
78990;BME280;68390;52.130;21.218;2023-04-15T09:54:35;99870.94;;;10.52;83.34
78990;BME280;68390;52.130;21.218;2023-04-15T09:57:05;99874.00;;;10.57;83.05
78990;BME280;68390;52.130;21.218;2023-04-15T09:59:30;99885.28;;;10.62;82.89
78990;BME280;68390;52.130;21.218;2023-04-15T10:01:56;99885.09;;;10.63;82.55
78990;BME280;68390;52.130;21.218;2023-04-15T10:04:22;99886.13;;;10.62;82.15
78990;BME280;68390;52.130;21.218;2023-04-15T10:06:48;99885.28;;;10.62;82.24
78990;BME280;68390;52.130;21.218;2023-04-15T10:09:13;99878.41;;;10.66;82.53
78990;BME280;68390;52.130;21.218;2023-04-15T10:11:39;99877.19;;;10.69;82.39
78990;BME280;68390;52.130;21.218;2023-04-15T10:14:06;99887.16;;;10.61;81.59
78990;BME280;68390;52.130;21.218;2023-04-15T10:16:33;99884.25;;;10.63;82.15
78990;BME280;68390;52.130;21.218;2023-04-15T10:19:01;99887.00;;;10.63;82.08
78990;BME280;68390;52.130;21.218;2023-04-15T10:21:29;99878.75;;;10.63;82.26
78990;BME280;68390;52.130;21.218;2023-04-15T10:23:55;99886.13;;;10.62;82.02
78990;BME280;68390;52.130;21.218;2023-04-15T10:26:21;99892.19;;;10.58;82.01
78990;BME280;68390;52.130;21.218;2023-04-15T10:28:46;99883.28;;;10.56;82.21
78990;BME280;68390;52.130;21.218;2023-04-15T10:31:13;99880.34;;;10.57;82.73
78990;BME280;68390;52.130;21.218;2023-04-15T10:33:39;99887.41;;;10.52;82.45
78990;BME280;68390;52.130;21.218;2023-04-15T10:36:06;99888.63;;;10.49;83.01
78990;BME280;68390;52.130;21.218;2023-04-15T10:38:32;99896.75;;;10.43;83.15
78990;BME280;68390;52.130;21.218;2023-04-15T10:41:22;99890.66;;;10.33;82.86
78990;BME280;68390;52.130;21.218;2023-04-15T10:43:54;99890.13;;;10.29;83.13
78990;BME280;68390;52.130;21.218;2023-04-15T10:46:44;99884.53;;;10.22;83.34
78990;BME280;68390;52.130;21.218;2023-04-15T10:49:14;99898.59;;;10.19;83.16
78990;BME280;68390;52.130;21.218;2023-04-15T10:51:51;99890.03;;;10.14;82.86
78990;BME280;68390;52.130;21.218;2023-04-15T10:56:51;99904.09;;;10.11;83.84
78990;BME280;68390;52.130;21.218;2023-04-15T10:59:16;99893.00;;;10.05;84.37
78990;BME280;68390;52.130;21.218;2023-04-15T11:02:02;99895.59;;;9.98;84.12
78990;BME280;68390;52.130;21.218;2023-04-15T11:04:56;99898.03;;;9.93;83.34
78990;BME280;68390;52.130;21.218;2023-04-15T11:12:51;99895.66;;;9.90;83.21
78990;BME280;68390;52.130;21.218;2023-04-15T11:18:12;99897.69;;;9.88;83.25
78990;BME280;68390;52.130;21.218;2023-04-15T11:20:39;99900.44;;;9.88;83.04
78990;BME280;68390;52.130;21.218;2023-04-15T11:23:05;99900.09;;;9.91;83.45
78990;BME280;68390;52.130;21.218;2023-04-15T11:25:32;99905.19;;;10.02;84.27
78990;BME280;68390;52.130;21.218;2023-04-15T11:27:59;99912.16;;;10.13;83.83
78990;BME280;68390;52.130;21.218;2023-04-15T11:30:30;99907.84;;;10.26;84.36
78990;BME280;68390;52.130;21.218;2023-04-15T11:33:05;99907.97;;;10.33;83.79
78990;BME280;68390;52.130;21.218;2023-04-15T11:35:31;99906.75;;;10.36;83.49
78990;BME280;68390;52.130;21.218;2023-04-15T11:37:56;99915.00;;;10.36;83.67
78990;BME280;68390;52.130;21.218;2023-04-15T11:40:26;99917.56;;;10.37;84.01
78990;BME280;68390;52.130;21.218;2023-04-15T11:43:09;99928.34;;;10.39;83.58
78990;BME280;68390;52.130;21.218;2023-04-15T11:45:36;99924.56;;;10.40;83.72
78990;BME280;68390;52.130;21.218;2023-04-15T11:48:09;99924.75;;;10.38;83.45
78990;BME280;68390;52.130;21.218;2023-04-15T11:50:36;99925.91;;;10.44;83.43
78990;BME280;68390;52.130;21.218;2023-04-15T11:53:05;99927.28;;;10.48;83.02
78990;BME280;68390;52.130;21.218;2023-04-15T11:55:43;99938.31;;;10.62;83.73
78990;BME280;68390;52.130;21.218;2023-04-15T11:58:23;99930.50;;;10.74;82.63
78990;BME280;68390;52.130;21.218;2023-04-15T12:00:56;99934.19;;;10.89;82.79
78990;BME280;68390;52.130;21.218;2023-04-15T12:03:34;99935.50;;;10.93;81.09
78990;BME280;68390;52.130;21.218;2023-04-15T12:08:55;99944.31;;;10.89;81.45
78990;BME280;68390;52.130;21.218;2023-04-15T12:11:43;99945.34;;;10.88;80.07
78990;BME280;68390;52.130;21.218;2023-04-15T12:14:26;99951.88;;;10.87;79.82
78990;BME280;68390;52.130;21.218;2023-04-15T12:19:35;99952.13;;;11.00;80.48
78990;BME280;68390;52.130;21.218;2023-04-15T12:22:02;99953.44;;;11.04;79.32
78990;BME280;68390;52.130;21.218;2023-04-15T12:24:32;99956.13;;;11.12;77.49
78990;BME280;68390;52.130;21.218;2023-04-15T12:27:09;99954.19;;;11.21;78.00
78990;BME280;68390;52.130;21.218;2023-04-15T12:29:36;99952.56;;;11.26;76.86
78990;BME280;68390;52.130;21.218;2023-04-15T12:32:05;99952.88;;;11.31;78.04
78990;BME280;68390;52.130;21.218;2023-04-15T12:34:34;99957.31;;;11.32;78.77
78990;BME280;68390;52.130;21.218;2023-04-15T12:37:02;99961.31;;;11.45;79.87
78990;BME280;68390;52.130;21.218;2023-04-15T12:39:30;99957.06;;;11.57;79.30
78990;BME280;68390;52.130;21.218;2023-04-15T12:41:57;99960.03;;;11.70;80.19
78990;BME280;68390;52.130;21.218;2023-04-15T12:44:23;99961.50;;;11.81;79.00
78990;BME280;68390;52.130;21.218;2023-04-15T12:46:49;99960.06;;;11.85;76.40
78990;BME280;68390;52.130;21.218;2023-04-15T12:49:15;99967.22;;;11.94;76.43
78990;BME280;68390;52.130;21.218;2023-04-15T12:51:43;99962.94;;;11.91;73.79
78990;BME280;68390;52.130;21.218;2023-04-15T12:54:09;99966.63;;;11.98;73.51
78990;BME280;68390;52.130;21.218;2023-04-15T12:56:35;99962.72;;;12.07;73.86
78990;BME280;68390;52.130;21.218;2023-04-15T12:59:00;99965.19;;;12.17;75.34
78990;BME280;68390;52.130;21.218;2023-04-15T13:01:26;99971.44;;;12.26;74.25
78990;BME280;68390;52.130;21.218;2023-04-15T13:03:51;99964.97;;;12.33;74.29
78990;BME280;68390;52.130;21.218;2023-04-15T13:06:17;99971.16;;;12.35;73.28
78990;BME280;68390;52.130;21.218;2023-04-15T13:08:42;99975.41;;;12.38;74.29
78990;BME280;68390;52.130;21.218;2023-04-15T13:11:08;99975.88;;;12.41;74.85
78990;BME280;68390;52.130;21.218;2023-04-15T13:13:33;99979.69;;;12.40;73.98
78990;BME280;68390;52.130;21.218;2023-04-15T13:15:59;99988.06;;;12.32;73.45